createdAt,value
2022-12-05T00:01:15.258Z,3.1
2022-12-05T00:03:19.009Z,3.1
2022-12-05T00:05:22.722Z,3.1
2022-12-05T00:07:26.450Z,3.1
2022-12-05T00:13:40.433Z,3.1
2022-12-05T00:17:47.876Z,3
2022-12-05T00:19:56.567Z,3
2022-12-05T00:26:02.875Z,3
2022-12-05T00:28:09.509Z,3
2022-12-05T00:30:13.238Z,3
2022-12-05T00:32:17.002Z,3
2022-12-05T00:34:20.704Z,3
2022-12-05T00:38:28.141Z,3
2022-12-05T00:40:31.823Z,3
2022-12-05T00:42:38.351Z,3
2022-12-05T00:44:42.104Z,3
2022-12-05T00:46:45.799Z,3
2022-12-05T00:47:49.066Z,3
2022-12-05T00:49:52.778Z,3
2022-12-05T00:51:56.501Z,3
2022-12-05T00:54:00.241Z,3
2022-12-05T00:56:06.796Z,3
2022-12-05T00:58:10.476Z,3
2022-12-05T01:00:14.226Z,3
2022-12-05T01:02:18.060Z,3
2022-12-05T01:04:21.786Z,3
2022-12-05T01:06:25.571Z,3
2022-12-05T01:08:29.289Z,3
2022-12-05T01:10:35.809Z,3
2022-12-05T01:12:39.630Z,2.9
2022-12-05T01:16:47.225Z,2.9
2022-12-05T01:22:58.330Z,2.9
2022-12-05T01:27:08.591Z,3
2022-12-05T01:29:12.380Z,3
2022-12-05T01:31:16.173Z,3
2022-12-05T01:33:19.862Z,3
2022-12-05T01:35:23.667Z,3
2022-12-05T01:37:27.388Z,3
2022-12-05T01:46:03.309Z,3
2022-12-05T01:48:06.991Z,3
2022-12-05T01:50:10.689Z,3
2022-12-05T01:52:17.277Z,3.1
2022-12-05T01:54:21.078Z,3.1
2022-12-05T01:56:24.796Z,3.1
2022-12-05T01:58:28.524Z,3.1
2022-12-05T02:00:32.341Z,3.1
2022-12-05T02:02:36.207Z,3.2
2022-12-05T02:04:39.912Z,3.1
2022-12-05T02:06:46.586Z,3.2
2022-12-05T02:08:50.522Z,3.2
2022-12-05T02:10:54.068Z,3.2
2022-12-05T02:12:57.930Z,3.2
2022-12-05T02:15:01.455Z,3.2
2022-12-05T02:19:09.021Z,3.2
2022-12-05T02:21:15.510Z,3.2
2022-12-05T02:23:19.239Z,3.2
2022-12-05T02:25:23.122Z,3.3
2022-12-05T02:27:26.823Z,3.3
2022-12-05T02:29:30.629Z,3.3
2022-12-05T02:31:34.234Z,3.3
2022-12-05T02:35:44.588Z,3.3
2022-12-05T02:37:48.413Z,3.3
2022-12-05T02:40:55.390Z,3.4
2022-12-05T02:50:18.642Z,3.3
2022-12-05T02:51:17.292Z,3.3
2022-12-05T02:53:20.825Z,3.3
2022-12-05T02:55:24.575Z,3.3
2022-12-05T02:57:28.318Z,3.4
2022-12-05T03:01:35.830Z,3.4
2022-12-05T03:03:42.339Z,3.4
2022-12-05T03:05:46.049Z,3.4
2022-12-05T03:07:49.833Z,3.4
2022-12-05T03:09:53.511Z,3.4
2022-12-05T03:11:57.219Z,3.3
2022-12-05T03:14:00.966Z,3.4
2022-12-05T03:16:04.717Z,3.4
2022-12-05T03:18:11.235Z,3.4
2022-12-05T03:22:18.808Z,3.4
2022-12-05T03:26:26.314Z,3.4
2022-12-05T03:32:42.712Z,3.4
2022-12-05T03:34:46.486Z,3.5
2022-12-05T03:36:50.226Z,3.5
2022-12-05T03:37:53.501Z,3.5
2022-12-05T03:39:57.642Z,3.5
2022-12-05T03:42:01.060Z,3.5
2022-12-05T03:50:19.013Z,3.5
2022-12-05T03:52:22.755Z,3.5
2022-12-05T03:54:26.485Z,3.5
2022-12-05T03:56:30.234Z,3.5
2022-12-05T03:58:34.054Z,3.6
2022-12-05T04:00:40.584Z,3.5
2022-12-05T04:04:48.075Z,3.5
2022-12-05T04:06:52.395Z,3.5
2022-12-05T04:08:56.115Z,3.5
2022-12-05T04:10:59.864Z,3.5
2022-12-05T04:15:10.351Z,3.5
2022-12-05T04:19:17.796Z,3.6
2022-12-05T04:23:25.294Z,3.6
2022-12-05T04:25:29.027Z,3.6
2022-12-05T04:27:32.747Z,3.6
2022-12-05T04:29:39.311Z,3.6
2022-12-05T04:31:43.232Z,3.6
2022-12-05T04:33:46.948Z,3.6
2022-12-05T04:34:50.210Z,3.6
2022-12-05T04:36:53.951Z,3.6
2022-12-05T04:38:57.689Z,3.6
2022-12-05T04:41:01.424Z,3.6
2022-12-05T04:43:08.108Z,3.6
2022-12-05T04:45:11.853Z,3.6
2022-12-05T04:47:15.589Z,3.6
2022-12-05T04:49:19.319Z,3.6
2022-12-05T04:53:26.850Z,3.7
2022-12-05T04:55:30.574Z,3.7
2022-12-05T04:57:37.156Z,3.7
2022-12-05T04:59:40.881Z,3.7
2022-12-05T05:03:48.403Z,3.7
2022-12-05T05:05:52.267Z,3.7
2022-12-05T05:09:59.914Z,3.7
2022-12-05T05:12:06.295Z,3.7
2022-12-05T05:14:10.038Z,3.7
2022-12-05T05:16:13.859Z,3.8
2022-12-05T05:18:17.530Z,3.8
2022-12-05T05:20:21.255Z,3.8
2022-12-05T05:22:25.012Z,3.8
2022-12-05T05:24:28.756Z,3.8
2022-12-05T05:26:35.340Z,3.8
2022-12-05T05:28:39.078Z,3.8
2022-12-05T05:30:42.792Z,3.8
2022-12-05T05:33:10.371Z,3.8
2022-12-05T05:37:17.847Z,3.8
2022-12-05T05:39:24.384Z,3.8
2022-12-05T05:47:39.398Z,3.8
2022-12-05T05:49:43.131Z,3.9
2022-12-05T05:51:46.913Z,3.9
2022-12-05T05:53:53.478Z,3.9
2022-12-05T05:55:57.334Z,3.9
2022-12-05T05:58:01.101Z,3.9
2022-12-05T06:00:04.847Z,3.9
2022-12-05T06:02:08.581Z,3.9
2022-12-05T06:04:12.396Z,3.9
2022-12-05T06:06:16.090Z,3.9
2022-12-05T06:08:22.735Z,3.9
2022-12-05T06:10:26.394Z,3.9
2022-12-05T06:12:30.203Z,3.9
2022-12-05T06:14:33.920Z,3.9
2022-12-05T06:16:37.740Z,4
2022-12-05T06:18:41.398Z,4
2022-12-05T06:20:45.136Z,4
2022-12-05T06:22:51.698Z,4
2022-12-05T06:24:55.474Z,4
2022-12-05T06:28:02.490Z,4
2022-12-05T06:30:06.233Z,4
2022-12-05T06:32:09.976Z,4.1
2022-12-05T06:36:20.407Z,4.1
2022-12-05T06:40:27.906Z,4.1
2022-12-05T06:46:39.189Z,4.2
2022-12-05T06:48:42.892Z,4.1
2022-12-05T06:50:49.489Z,4.2
2022-12-05T06:52:53.233Z,4.2
2022-12-05T06:54:57.010Z,4.2
2022-12-05T06:57:00.745Z,4.2
2022-12-05T07:01:08.282Z,4.2
2022-12-05T07:05:18.604Z,4.3
2022-12-05T07:09:26.084Z,4.3
2022-12-05T07:13:33.624Z,4.3
2022-12-05T07:15:37.369Z,4.3
2022-12-05T07:17:41.142Z,4.4
2022-12-05T07:19:47.715Z,4.4
2022-12-05T07:21:51.456Z,4.4
2022-12-05T07:23:55.265Z,4.4
2022-12-05T07:29:06.113Z,4.4
2022-12-05T07:31:09.896Z,4.4
2022-12-05T07:33:16.464Z,4.4
2022-12-05T07:45:39.112Z,4.5
2022-12-05T07:53:56.992Z,4.5
2022-12-05T07:56:00.762Z,4.5
2022-12-05T07:58:04.519Z,4.5
2022-12-05T08:00:08.274Z,4.5
2022-12-05T08:02:14.893Z,4.5
2022-12-05T08:04:18.611Z,4.5
2022-12-05T08:06:22.366Z,4.5
2022-12-05T08:08:26.128Z,4.6
2022-12-05T08:10:29.896Z,4.6
2022-12-05T08:12:33.761Z,4.6
2022-12-05T08:14:37.517Z,4.6
2022-12-05T08:16:44.209Z,4.6
2022-12-05T08:18:47.846Z,4.6
2022-12-05T08:20:51.622Z,4.6
2022-12-05T08:21:54.903Z,4.6
2022-12-05T08:23:58.671Z,4.6
2022-12-05T08:26:02.442Z,4.6
2022-12-05T08:28:06.230Z,4.6
2022-12-05T08:30:12.932Z,4.7
2022-12-05T08:32:16.693Z,4.7
2022-12-05T08:34:20.575Z,4.7
2022-12-05T08:36:24.472Z,4.7
2022-12-05T08:38:28.197Z,4.7
2022-12-05T08:40:31.968Z,4.7
2022-12-05T08:42:35.847Z,4.7
2022-12-05T08:44:42.435Z,4.7
2022-12-05T08:46:46.395Z,4.7
2022-12-05T08:48:50.189Z,4.7
2022-12-05T08:50:53.986Z,4.7
2022-12-05T08:52:57.778Z,4.8
2022-12-05T08:55:01.623Z,4.8
2022-12-05T08:57:05.509Z,4.8
2022-12-05T09:01:16.011Z,4.8
2022-12-05T09:03:19.745Z,4.9
2022-12-05T09:05:28.171Z,4.8
2022-12-05T09:07:27.561Z,4.8
2022-12-05T09:09:31.259Z,4.9
2022-12-05T09:11:35.027Z,4.9
2022-12-05T09:13:41.742Z,4.8
2022-12-05T09:15:45.677Z,4.9
2022-12-05T09:17:49.360Z,4.8
2022-12-05T09:20:19.191Z,4.8
2022-12-05T09:24:26.848Z,4.8
2022-12-05T09:28:38.709Z,4.8
2022-12-05T09:30:42.651Z,4.8
2022-12-05T09:32:46.469Z,4.7
2022-12-05T09:34:50.372Z,4.8
2022-12-05T09:41:05.559Z,4.8
2022-12-05T09:43:09.433Z,4.8
2022-12-05T09:45:13.292Z,4.7
2022-12-05T09:47:17.157Z,4.7
2022-12-05T09:49:21.103Z,4.7
2022-12-05T09:53:28.708Z,4.7
2022-12-05T09:55:35.501Z,4.6
2022-12-05T10:03:50.571Z,4.6
2022-12-05T10:05:54.363Z,4.7
2022-12-05T10:15:16.069Z,4.6
2022-12-05T10:17:19.945Z,4.6
2022-12-05T10:19:23.720Z,4.7
2022-12-05T10:21:27.491Z,4.7
2022-12-05T10:23:56.470Z,4.7
2022-12-05T10:25:38.069Z,4.7
2022-12-05T10:27:41.825Z,4.7
2022-12-05T10:29:45.632Z,4.7
2022-12-05T10:31:49.506Z,4.8
2022-12-05T10:33:53.279Z,4.8
2022-12-05T10:35:57.034Z,4.8
2022-12-05T10:38:03.652Z,4.8
2022-12-05T10:40:07.410Z,4.8
2022-12-05T10:42:11.303Z,4.8
2022-12-05T10:44:15.167Z,4.8
2022-12-05T10:48:22.925Z,4.9
2022-12-05T10:50:26.794Z,4.9
2022-12-05T10:52:33.403Z,4.9
2022-12-05T10:56:41.153Z,4.9
2022-12-05T10:58:45.037Z,4.9
2022-12-05T11:07:03.254Z,5
2022-12-05T11:09:07.197Z,4.9
2022-12-05T11:11:10.921Z,5
2022-12-05T11:12:14.216Z,5
2022-12-05T11:16:21.857Z,5
2022-12-05T11:18:25.552Z,4.9
2022-12-05T11:20:32.244Z,4.9
2022-12-05T11:22:36.072Z,4.9
2022-12-05T11:24:39.930Z,4.9
2022-12-05T11:26:43.716Z,4.9
2022-12-05T11:28:47.580Z,4.9
2022-12-05T11:30:51.489Z,4.9
2022-12-05T11:32:55.274Z,4.9
2022-12-05T11:35:02.055Z,4.9
2022-12-05T11:45:21.524Z,4.9
2022-12-05T11:49:31.976Z,4.9
2022-12-05T11:51:35.861Z,4.9
2022-12-05T11:55:43.552Z,4.9
2022-12-05T11:57:51.999Z,4.9
2022-12-05T11:59:51.135Z,4.9
2022-12-05T12:01:55.087Z,4.9
2022-12-05T12:04:01.649Z,4.9
2022-12-05T12:06:05.543Z,4.9
2022-12-05T12:08:09.337Z,5
2022-12-05T12:09:12.605Z,5
2022-12-05T12:11:16.493Z,5
2022-12-05T12:13:20.277Z,4.9
2022-12-05T12:15:24.160Z,4.9
2022-12-05T12:17:30.975Z,4.9
2022-12-05T12:23:42.633Z,4.9
2022-12-05T12:25:46.445Z,4.9
2022-12-05T12:27:50.215Z,4.9
2022-12-05T12:29:53.986Z,4.9
2022-12-05T12:32:00.897Z,4.9
2022-12-05T12:34:04.596Z,4.9
2022-12-05T12:36:08.344Z,4.9
2022-12-05T12:38:12.141Z,4.9
2022-12-05T12:40:15.892Z,4.9
2022-12-05T12:42:19.697Z,4.9
2022-12-05T12:44:23.473Z,4.9
2022-12-05T12:46:30.298Z,4.9
2022-12-05T12:48:34.049Z,4.9
2022-12-05T12:50:43.381Z,4.9
2022-12-05T12:52:41.617Z,4.9
2022-12-05T12:55:03.327Z,4.9
2022-12-05T12:56:49.203Z,4.9
2022-12-05T12:58:52.957Z,4.9
2022-12-05T13:09:40.772Z,4.8
2022-12-05T13:13:51.257Z,4.8
2022-12-05T13:15:55.038Z,4.8
2022-12-05T13:20:02.733Z,4.9
2022-12-05T13:22:06.626Z,4.9
2022-12-05T13:26:14.176Z,4.8
2022-12-05T13:28:25.654Z,4.8
2022-12-05T13:30:24.579Z,4.8
2022-12-05T13:34:32.103Z,4.8
2022-12-05T13:38:40.026Z,4.8
2022-12-05T13:40:43.913Z,4.8
2022-12-05T13:42:50.615Z,4.8
2022-12-05T13:44:54.475Z,4.8
2022-12-05T13:49:06.488Z,4.8
2022-12-05T13:51:06.062Z,4.9
2022-12-05T13:53:09.819Z,4.9
2022-12-05T13:55:13.776Z,4.8
2022-12-05T13:57:20.414Z,4.8
2022-12-05T13:59:24.170Z,4.8
2022-12-05T14:01:28.162Z,4.8
2022-12-05T14:02:31.408Z,4.9
2022-12-05T14:04:35.127Z,4.9
2022-12-05T14:08:42.801Z,4.8
2022-12-05T14:17:00.879Z,4.8
2022-12-05T14:21:08.392Z,4.9
2022-12-05T14:23:12.240Z,4.8
2022-12-05T14:29:26.391Z,4.8
2022-12-05T14:33:33.964Z,4.8
2022-12-05T14:35:37.745Z,4.8
2022-12-05T14:37:44.436Z,4.8
2022-12-05T14:39:48.237Z,4.7
2022-12-05T14:41:51.983Z,4.7
2022-12-05T14:43:55.783Z,4.7
2022-12-05T14:45:59.800Z,4.7
2022-12-05T14:48:03.468Z,4.7
2022-12-05T14:50:07.210Z,4.7
2022-12-05T14:52:10.990Z,4.7
2022-12-05T14:54:17.579Z,4.7
2022-12-05T14:56:21.351Z,4.7
2022-12-05T15:01:32.241Z,4.7
2022-12-05T15:03:36.001Z,4.7
2022-12-05T15:05:39.855Z,4.7
2022-12-05T15:07:46.569Z,4.7
2022-12-05T15:09:50.418Z,4.7
2022-12-05T15:11:54.311Z,4.7
2022-12-05T15:13:58.188Z,4.7
2022-12-05T15:16:02.115Z,4.8
2022-12-05T15:18:05.932Z,4.7
2022-12-05T15:20:09.793Z,4.7
2022-12-05T15:22:18.115Z,4.7
2022-12-05T15:24:21.959Z,4.7
2022-12-05T15:28:29.680Z,4.7
2022-12-05T15:30:33.456Z,4.7
2022-12-05T15:32:37.347Z,4.7
2022-12-05T15:34:41.124Z,4.7
2022-12-05T15:36:47.703Z,4.7
2022-12-05T15:38:51.551Z,4.7
2022-12-05T15:40:55.411Z,4.7
2022-12-05T15:42:59.230Z,4.7
2022-12-05T15:45:03.108Z,4.7
2022-12-05T15:47:06.981Z,4.7
2022-12-05T15:49:10.740Z,4.7
2022-12-05T15:51:17.444Z,4.7
2022-12-05T15:53:21.213Z,4.7
2022-12-05T15:55:25.082Z,4.7
2022-12-05T15:58:32.102Z,4.7
2022-12-05T16:00:35.958Z,4.7
2022-12-05T16:04:46.530Z,4.7
2022-12-05T16:06:50.308Z,4.7
2022-12-05T16:08:54.075Z,4.7
2022-12-05T16:10:57.883Z,4.7
2022-12-05T16:13:01.702Z,4.7
2022-12-05T16:15:05.567Z,4.7
2022-12-05T16:17:09.337Z,4.8
2022-12-05T16:23:23.697Z,4.8
2022-12-05T16:25:27.614Z,4.7
2022-12-05T16:27:31.478Z,4.8
2022-12-05T16:29:35.282Z,4.7
2022-12-05T16:31:39.271Z,4.7
2022-12-05T16:33:45.765Z,4.8
2022-12-05T16:35:49.532Z,4.7
2022-12-05T16:37:53.430Z,4.8
2022-12-05T16:39:57.810Z,4.8
2022-12-05T16:42:01.209Z,4.7
2022-12-05T16:44:10.780Z,4.7
2022-12-05T16:46:08.832Z,4.8
2022-12-05T16:48:15.495Z,4.8
2022-12-05T16:50:19.316Z,4.7
2022-12-05T16:52:23.153Z,4.8
2022-12-05T16:54:52.753Z,4.8
2022-12-05T16:56:56.570Z,4.8
2022-12-05T16:59:00.367Z,4.8
2022-12-05T17:01:06.984Z,4.8
2022-12-05T17:03:32.794Z,4.8
2022-12-05T17:05:14.617Z,4.8
2022-12-05T17:09:22.356Z,4.8
2022-12-05T17:19:44.320Z,4.9
2022-12-05T17:21:48.215Z,4.8
2022-12-05T17:23:51.997Z,4.8
2022-12-05T17:25:55.912Z,4.8
2022-12-05T17:27:59.812Z,4.9
2022-12-05T17:34:14.173Z,4.8
2022-12-05T17:36:18.069Z,4.8
2022-12-05T17:38:21.844Z,4.8
2022-12-05T17:40:25.647Z,4.8
2022-12-05T17:48:43.904Z,4.8
2022-12-05T17:52:20.123Z,4.8
2022-12-05T17:53:54.970Z,4.8
2022-12-05T18:06:20.934Z,4.8
2022-12-05T18:08:24.855Z,4.8
2022-12-05T18:10:28.710Z,4.8
2022-12-05T18:12:35.414Z,4.8
2022-12-05T18:20:50.732Z,4.8
2022-12-05T18:22:54.535Z,4.8
2022-12-05T18:24:59.020Z,4.8
2022-12-05T18:27:05.019Z,4.8
2022-12-05T18:29:08.817Z,4.8
2022-12-05T18:31:12.650Z,4.8
2022-12-05T18:33:16.420Z,4.8
2022-12-05T18:35:20.306Z,4.8
2022-12-05T18:37:24.094Z,4.8
2022-12-05T18:39:27.880Z,4.8
2022-12-05T18:41:34.559Z,4.8
2022-12-05T18:43:38.354Z,4.8
2022-12-05T18:45:42.172Z,4.8
2022-12-05T18:48:49.233Z,4.8
2022-12-05T18:50:53.004Z,4.8
2022-12-05T18:52:56.793Z,4.9
2022-12-05T18:55:16.945Z,4.9
2022-12-05T18:59:11.187Z,4.9
2022-12-05T19:01:15.053Z,4.8
2022-12-05T19:03:18.834Z,4.9
2022-12-05T19:05:22.645Z,4.9
2022-12-05T19:07:26.533Z,4.9
2022-12-05T19:09:33.269Z,4.8
2022-12-05T19:11:37.032Z,4.9
2022-12-05T19:13:40.853Z,4.9
2022-12-05T19:15:44.718Z,4.9
2022-12-05T19:17:48.614Z,4.9
2022-12-05T19:19:52.384Z,4.9
2022-12-05T19:21:56.281Z,4.9
2022-12-05T19:24:03.127Z,4.8
2022-12-05T19:26:06.981Z,4.9
2022-12-05T19:28:10.759Z,4.8
2022-12-05T19:30:14.643Z,4.9
2022-12-05T19:32:18.449Z,4.9
2022-12-05T19:34:22.247Z,4.9
2022-12-05T19:36:26.145Z,4.9
2022-12-05T19:38:32.939Z,4.9
2022-12-05T19:40:36.727Z,4.9
2022-12-05T19:42:40.623Z,4.9
2022-12-05T19:43:43.899Z,4.8
2022-12-05T19:45:47.700Z,4.8
2022-12-05T19:47:51.484Z,4.9
2022-12-05T19:49:55.267Z,4.8
2022-12-05T19:52:01.871Z,4.8
2022-12-05T19:54:05.689Z,4.8
2022-12-05T19:56:09.450Z,4.8
2022-12-05T19:58:13.220Z,4.8
2022-12-05T20:00:17.131Z,4.8
2022-12-05T20:02:21.073Z,4.8
2022-12-05T20:04:24.886Z,4.8
2022-12-05T20:06:31.497Z,4.8
2022-12-05T20:08:35.373Z,4.8
2022-12-05T20:10:39.160Z,4.8
2022-12-05T20:12:42.953Z,4.7
2022-12-05T20:14:46.837Z,4.7
2022-12-05T20:16:50.773Z,4.7
2022-12-05T20:18:54.505Z,4.8
2022-12-05T20:21:01.122Z,4.7
2022-12-05T20:23:04.902Z,4.7
2022-12-05T20:25:08.663Z,4.7
2022-12-05T20:27:12.457Z,4.7
2022-12-05T20:29:16.314Z,4.7
2022-12-05T20:31:20.220Z,4.7
2022-12-05T20:33:23.888Z,4.7
2022-12-05T20:35:30.469Z,4.7
2022-12-05T20:37:35.747Z,4.7
2022-12-05T20:39:38.228Z,4.7
2022-12-05T20:42:07.982Z,4.7
2022-12-05T20:44:11.749Z,4.7
2022-12-05T20:46:15.677Z,4.7
2022-12-05T20:48:22.306Z,4.7
2022-12-05T20:50:26.087Z,4.7
2022-12-05T20:52:29.888Z,4.7
2022-12-05T20:54:33.655Z,4.7
2022-12-05T20:56:37.546Z,4.7
2022-12-05T20:58:41.331Z,4.7
2022-12-05T21:00:45.238Z,4.7
2022-12-05T21:02:51.927Z,4.7
2022-12-05T21:04:55.591Z,4.6
2022-12-05T21:06:59.385Z,4.6
2022-12-05T21:09:03.271Z,4.6
2022-12-05T21:11:07.171Z,4.6
2022-12-05T21:13:10.944Z,4.6
2022-12-05T21:15:14.841Z,4.6
2022-12-05T21:17:21.664Z,4.6
2022-12-05T21:19:27.074Z,4.6
2022-12-05T21:21:30.804Z,4.6
2022-12-05T21:25:38.382Z,4.6
2022-12-05T21:27:42.178Z,4.6
2022-12-05T21:29:46.046Z,4.6
2022-12-05T21:31:52.733Z,4.6
2022-12-05T21:33:56.522Z,4.6
2022-12-05T21:36:00.411Z,4.6
2022-12-05T21:41:11.486Z,4.6
2022-12-05T21:43:15.343Z,4.6
2022-12-05T21:45:22.060Z,4.6
2022-12-05T22:03:59.398Z,4.7
2022-12-05T22:08:07.072Z,4.7
2022-12-05T22:10:10.820Z,4.7
2022-12-05T22:14:21.323Z,4.8
2022-12-05T22:18:28.978Z,4.8
2022-12-05T22:22:36.521Z,4.8
2022-12-05T22:24:40.424Z,4.7
2022-12-05T22:28:50.874Z,4.7
2022-12-05T22:30:54.721Z,4.8
2022-12-05T22:32:58.557Z,4.8
2022-12-05T22:34:01.948Z,4.7
2022-12-05T22:36:05.722Z,4.8
2022-12-05T22:38:09.529Z,4.7
2022-12-05T22:40:13.394Z,4.7
2022-12-05T22:44:23.791Z,4.7
2022-12-05T22:46:27.783Z,4.8
2022-12-05T22:48:31.456Z,4.8
2022-12-05T22:50:35.226Z,4.7
2022-12-05T22:52:39.104Z,4.8
2022-12-05T22:54:42.898Z,4.7
2022-12-05T22:58:53.394Z,4.7
2022-12-05T23:00:57.279Z,4.8
2022-12-05T23:07:08.888Z,4.7
2022-12-05T23:11:19.263Z,4.8
2022-12-05T23:13:23.055Z,4.8
2022-12-05T23:15:26.835Z,4.8
2022-12-05T23:17:30.619Z,4.7
2022-12-05T23:19:34.397Z,4.8
2022-12-05T23:23:42.002Z,4.8
2022-12-05T23:25:48.800Z,4.8
2022-12-05T23:27:52.591Z,4.8
2022-12-05T23:29:56.754Z,4.8
2022-12-05T23:30:59.771Z,4.8
2022-12-05T23:33:03.549Z,4.8
2022-12-05T23:35:07.321Z,4.8
2022-12-05T23:37:11.118Z,4.8
2022-12-05T23:39:17.703Z,4.8
2022-12-05T23:41:21.462Z,4.9
2022-12-05T23:49:36.684Z,4.8
2022-12-05T23:53:47.170Z,4.9
2022-12-05T23:55:50.956Z,4.9
2022-12-05T23:57:54.832Z,4.8
2022-12-05T23:59:59.014Z,4.9
